sensor_id;sensor_type;location;lat;lon;timestamp;P1;durP1;ratioP1;P2;durP2;ratioP2
9809;SDS011;4944;52.514;13.192;2023-03-14T00:00:50;2.30;;;1.10;;
9809;SDS011;4944;52.514;13.192;2023-03-14T00:03:17;0.80;;;0.80;;
9809;SDS011;4944;52.514;13.192;2023-03-14T00:05:44;3.67;;;0.80;;
9809;SDS011;4944;52.514;13.192;2023-03-14T00:08:11;0.93;;;0.83;;
9809;SDS011;4944;52.514;13.192;2023-03-14T00:10:38;0.80;;;0.80;;
9809;SDS011;4944;52.514;13.192;2023-03-14T00:13:05;0.97;;;0.90;;
9809;SDS011;4944;52.514;13.192;2023-03-14T00:15:34;2.50;;;0.97;;
9809;SDS011;4944;52.514;13.192;2023-03-14T00:18:01;0.60;;;0.60;;
9809;SDS011;4944;52.514;13.192;2023-03-14T00:20:28;0.90;;;0.80;;
9809;SDS011;4944;52.514;13.192;2023-03-14T00:22:55;1.00;;;1.00;;
9809;SDS011;4944;52.514;13.192;2023-03-14T00:25:21;1.30;;;0.97;;
9809;SDS011;4944;52.514;13.192;2023-03-14T00:27:49;0.77;;;0.77;;
9809;SDS011;4944;52.514;13.192;2023-03-14T00:30:17;1.00;;;0.90;;
9809;SDS011;4944;52.514;13.192;2023-03-14T00:32:45;1.13;;;0.73;;
9809;SDS011;4944;52.514;13.192;2023-03-14T00:35:12;0.57;;;0.53;;
9809;SDS011;4944;52.514;13.192;2023-03-14T00:37:39;0.70;;;0.70;;
9809;SDS011;4944;52.514;13.192;2023-03-14T00:40:07;0.67;;;0.67;;
9809;SDS011;4944;52.514;13.192;2023-03-14T00:42:35;1.00;;;0.77;;
9809;SDS011;4944;52.514;13.192;2023-03-14T00:45:02;1.20;;;0.80;;
9809;SDS011;4944;52.514;13.192;2023-03-14T00:47:29;0.87;;;0.87;;
9809;SDS011;4944;52.514;13.192;2023-03-14T00:49:58;1.77;;;1.00;;
9809;SDS011;4944;52.514;13.192;2023-03-14T00:52:25;0.73;;;0.73;;
9809;SDS011;4944;52.514;13.192;2023-03-14T00:54:51;0.57;;;0.57;;
9809;SDS011;4944;52.514;13.192;2023-03-14T00:57:18;0.97;;;0.80;;
9809;SDS011;4944;52.514;13.192;2023-03-14T00:59:45;0.87;;;0.87;;
9809;SDS011;4944;52.514;13.192;2023-03-14T01:02:12;0.60;;;0.57;;
9809;SDS011;4944;52.514;13.192;2023-03-14T01:04:39;1.43;;;1.20;;
9809;SDS011;4944;52.514;13.192;2023-03-14T01:07:09;0.87;;;0.87;;
9809;SDS011;4944;52.514;13.192;2023-03-14T01:09:36;0.93;;;0.87;;
9809;SDS011;4944;52.514;13.192;2023-03-14T01:12:03;1.90;;;0.97;;
9809;SDS011;4944;52.514;13.192;2023-03-14T01:14:30;1.07;;;0.97;;
9809;SDS011;4944;52.514;13.192;2023-03-14T01:16:57;0.83;;;0.83;;
9809;SDS011;4944;52.514;13.192;2023-03-14T01:19:26;0.80;;;0.80;;
9809;SDS011;4944;52.514;13.192;2023-03-14T01:21:53;0.97;;;0.90;;
9809;SDS011;4944;52.514;13.192;2023-03-14T01:24:22;1.10;;;1.10;;
9809;SDS011;4944;52.514;13.192;2023-03-14T01:26:49;1.03;;;0.67;;
9809;SDS011;4944;52.514;13.192;2023-03-14T01:29:15;1.70;;;1.00;;
9809;SDS011;4944;52.514;13.192;2023-03-14T01:31:42;0.80;;;0.80;;
9809;SDS011;4944;52.514;13.192;2023-03-14T01:34:09;0.93;;;0.87;;
9809;SDS011;4944;52.514;13.192;2023-03-14T01:36:36;1.00;;;1.00;;
9809;SDS011;4944;52.514;13.192;2023-03-14T01:39:03;1.57;;;0.73;;
9809;SDS011;4944;52.514;13.192;2023-03-14T01:41:32;0.90;;;0.90;;
9809;SDS011;4944;52.514;13.192;2023-03-14T01:43:59;0.67;;;0.67;;
9809;SDS011;4944;52.514;13.192;2023-03-14T01:46:28;0.93;;;0.80;;
9809;SDS011;4944;52.514;13.192;2023-03-14T01:49:18;1.10;;;1.10;;
9809;SDS011;4944;52.514;13.192;2023-03-14T01:51:49;0.80;;;0.80;;
9809;SDS011;4944;52.514;13.192;2023-03-14T01:54:20;0.80;;;0.70;;
9809;SDS011;4944;52.514;13.192;2023-03-14T01:56:52;1.50;;;0.73;;
9809;SDS011;4944;52.514;13.192;2023-03-14T01:59:22;0.87;;;0.80;;
9809;SDS011;4944;52.514;13.192;2023-03-14T02:01:50;0.87;;;0.83;;
9809;SDS011;4944;52.514;13.192;2023-03-14T02:04:18;0.73;;;0.73;;
9809;SDS011;4944;52.514;13.192;2023-03-14T02:06:48;0.80;;;0.80;;
9809;SDS011;4944;52.514;13.192;2023-03-14T02:09:18;1.90;;;0.87;;
9809;SDS011;4944;52.514;13.192;2023-03-14T02:11:46;0.73;;;0.73;;
9809;SDS011;4944;52.514;13.192;2023-03-14T02:14:16;0.77;;;0.77;;
9809;SDS011;4944;52.514;13.192;2023-03-14T02:16:51;1.50;;;1.20;;
9809;SDS011;4944;52.514;13.192;2023-03-14T02:19:19;2.60;;;1.00;;
9809;SDS011;4944;52.514;13.192;2023-03-14T02:21:53;1.03;;;0.77;;
9809;SDS011;4944;52.514;13.192;2023-03-14T02:24:31;1.47;;;0.57;;
9809;SDS011;4944;52.514;13.192;2023-03-14T02:27:05;1.13;;;0.93;;
9809;SDS011;4944;52.514;13.192;2023-03-14T02:29:37;1.17;;;0.80;;
9809;SDS011;4944;52.514;13.192;2023-03-14T02:32:11;0.80;;;0.80;;
9809;SDS011;4944;52.514;13.192;2023-03-14T02:34:39;1.40;;;0.67;;
9809;SDS011;4944;52.514;13.192;2023-03-14T02:37:08;2.20;;;0.80;;
9809;SDS011;4944;52.514;13.192;2023-03-14T02:39:38;1.27;;;0.90;;
9809;SDS011;4944;52.514;13.192;2023-03-14T02:42:09;0.80;;;0.80;;
9809;SDS011;4944;52.514;13.192;2023-03-14T02:44:36;3.00;;;0.70;;
9809;SDS011;4944;52.514;13.192;2023-03-14T02:47:13;0.80;;;0.80;;
9809;SDS011;4944;52.514;13.192;2023-03-14T02:49:40;0.73;;;0.70;;
9809;SDS011;4944;52.514;13.192;2023-03-14T02:52:07;0.70;;;0.60;;
9809;SDS011;4944;52.514;13.192;2023-03-14T02:54:33;1.17;;;1.00;;
9809;SDS011;4944;52.514;13.192;2023-03-14T02:57:00;0.60;;;0.60;;
9809;SDS011;4944;52.514;13.192;2023-03-14T02:59:30;1.07;;;0.73;;
9809;SDS011;4944;52.514;13.192;2023-03-14T03:01:59;4.13;;;1.10;;
9809;SDS011;4944;52.514;13.192;2023-03-14T03:04:25;1.13;;;0.70;;
9809;SDS011;4944;52.514;13.192;2023-03-14T03:06:52;0.83;;;0.83;;
9809;SDS011;4944;52.514;13.192;2023-03-14T03:09:19;0.50;;;0.50;;
9809;SDS011;4944;52.514;13.192;2023-03-14T03:11:46;0.80;;;0.80;;
9809;SDS011;4944;52.514;13.192;2023-03-14T03:14:13;0.57;;;0.57;;
9809;SDS011;4944;52.514;13.192;2023-03-14T03:16:41;0.80;;;0.80;;
9809;SDS011;4944;52.514;13.192;2023-03-14T03:19:08;1.50;;;0.73;;
9809;SDS011;4944;52.514;13.192;2023-03-14T03:21:35;0.60;;;0.60;;
9809;SDS011;4944;52.514;13.192;2023-03-14T03:24:02;0.70;;;0.70;;
9809;SDS011;4944;52.514;13.192;2023-03-14T03:26:29;1.57;;;0.70;;
9809;SDS011;4944;52.514;13.192;2023-03-14T03:28:56;1.07;;;0.53;;
9809;SDS011;4944;52.514;13.192;2023-03-14T03:31:22;0.70;;;0.70;;
9809;SDS011;4944;52.514;13.192;2023-03-14T03:33:51;0.70;;;0.70;;
9809;SDS011;4944;52.514;13.192;2023-03-14T03:36:20;0.70;;;0.70;;
9809;SDS011;4944;52.514;13.192;2023-03-14T03:38:47;1.03;;;0.80;;
9809;SDS011;4944;52.514;13.192;2023-03-14T03:41:14;0.83;;;0.70;;
9809;SDS011;4944;52.514;13.192;2023-03-14T03:43:41;0.60;;;0.60;;
9809;SDS011;4944;52.514;13.192;2023-03-14T03:46:08;0.63;;;0.63;;
9809;SDS011;4944;52.514;13.192;2023-03-14T03:48:36;0.50;;;0.50;;
9809;SDS011;4944;52.514;13.192;2023-03-14T03:51:04;0.53;;;0.53;;
9809;SDS011;4944;52.514;13.192;2023-03-14T03:53:31;0.60;;;0.60;;
9809;SDS011;4944;52.514;13.192;2023-03-14T03:55:58;0.30;;;0.30;;
9809;SDS011;4944;52.514;13.192;2023-03-14T03:58:26;0.93;;;0.57;;
9809;SDS011;4944;52.514;13.192;2023-03-14T04:00:53;0.50;;;0.50;;
9809;SDS011;4944;52.514;13.192;2023-03-14T04:03:20;1.43;;;0.60;;
9809;SDS011;4944;52.514;13.192;2023-03-14T04:05:57;1.00;;;0.57;;
9809;SDS011;4944;52.514;13.192;2023-03-14T04:08:26;0.70;;;0.70;;
9809;SDS011;4944;52.514;13.192;2023-03-14T04:10:55;0.50;;;0.50;;
9809;SDS011;4944;52.514;13.192;2023-03-14T04:13:22;0.50;;;0.50;;
9809;SDS011;4944;52.514;13.192;2023-03-14T04:15:49;1.53;;;0.60;;
9809;SDS011;4944;52.514;13.192;2023-03-14T04:18:16;0.63;;;0.63;;
9809;SDS011;4944;52.514;13.192;2023-03-14T04:20:43;0.40;;;0.40;;
9809;SDS011;4944;52.514;13.192;2023-03-14T04:23:11;0.50;;;0.50;;
9809;SDS011;4944;52.514;13.192;2023-03-14T04:25:39;0.40;;;0.40;;
9809;SDS011;4944;52.514;13.192;2023-03-14T04:28:06;1.17;;;0.53;;
9809;SDS011;4944;52.514;13.192;2023-03-14T04:30:33;0.67;;;0.67;;
9809;SDS011;4944;52.514;13.192;2023-03-14T04:33:00;1.10;;;0.50;;
9809;SDS011;4944;52.514;13.192;2023-03-14T04:35:27;0.90;;;0.80;;
9809;SDS011;4944;52.514;13.192;2023-03-14T04:37:56;0.60;;;0.60;;
9809;SDS011;4944;52.514;13.192;2023-03-14T04:40:23;0.53;;;0.50;;
9809;SDS011;4944;52.514;13.192;2023-03-14T04:42:51;0.70;;;0.60;;
9809;SDS011;4944;52.514;13.192;2023-03-14T04:45:18;1.43;;;0.57;;
9809;SDS011;4944;52.514;13.192;2023-03-14T04:47:45;0.80;;;0.80;;
9809;SDS011;4944;52.514;13.192;2023-03-14T04:50:12;0.70;;;0.70;;
9809;SDS011;4944;52.514;13.192;2023-03-14T04:52:39;0.60;;;0.60;;
9809;SDS011;4944;52.514;13.192;2023-03-14T04:55:06;0.60;;;0.60;;
9809;SDS011;4944;52.514;13.192;2023-03-14T04:57:33;0.50;;;0.50;;
9809;SDS011;4944;52.514;13.192;2023-03-14T05:00:01;0.60;;;0.47;;
9809;SDS011;4944;52.514;13.192;2023-03-14T05:02:31;2.03;;;0.60;;
9809;SDS011;4944;52.514;13.192;2023-03-14T05:04:58;0.57;;;0.57;;
9809;SDS011;4944;52.514;13.192;2023-03-14T05:07:25;0.43;;;0.43;;
9809;SDS011;4944;52.514;13.192;2023-03-14T05:09:52;5.87;;;0.77;;
9809;SDS011;4944;52.514;13.192;2023-03-14T05:12:19;0.60;;;0.60;;
9809;SDS011;4944;52.514;13.192;2023-03-14T05:14:46;1.83;;;0.60;;
9809;SDS011;4944;52.514;13.192;2023-03-14T05:17:14;1.17;;;0.67;;
9809;SDS011;4944;52.514;13.192;2023-03-14T05:19:41;0.63;;;0.63;;
9809;SDS011;4944;52.514;13.192;2023-03-14T05:22:08;0.97;;;0.60;;
9809;SDS011;4944;52.514;13.192;2023-03-14T05:24:35;3.70;;;1.23;;
9809;SDS011;4944;52.514;13.192;2023-03-14T05:27:04;2.27;;;0.50;;
9809;SDS011;4944;52.514;13.192;2023-03-14T05:29:31;1.80;;;0.57;;
9809;SDS011;4944;52.514;13.192;2023-03-14T05:31:57;0.60;;;0.60;;
9809;SDS011;4944;52.514;13.192;2023-03-14T05:34:26;0.87;;;0.80;;
9809;SDS011;4944;52.514;13.192;2023-03-14T05:36:53;0.73;;;0.73;;
9809;SDS011;4944;52.514;13.192;2023-03-14T05:39:21;1.03;;;0.50;;
9809;SDS011;4944;52.514;13.192;2023-03-14T05:41:48;0.60;;;0.60;;
9809;SDS011;4944;52.514;13.192;2023-03-14T05:44:16;1.33;;;0.57;;
9809;SDS011;4944;52.514;13.192;2023-03-14T05:46:43;0.60;;;0.50;;
9809;SDS011;4944;52.514;13.192;2023-03-14T05:49:09;0.77;;;0.70;;
9809;SDS011;4944;52.514;13.192;2023-03-14T05:51:38;1.30;;;0.80;;
9809;SDS011;4944;52.514;13.192;2023-03-14T05:54:05;0.60;;;0.40;;
9809;SDS011;4944;52.514;13.192;2023-03-14T05:56:32;1.43;;;0.80;;
9809;SDS011;4944;52.514;13.192;2023-03-14T05:58:58;0.80;;;0.70;;
9809;SDS011;4944;52.514;13.192;2023-03-14T06:01:27;0.53;;;0.50;;
9809;SDS011;4944;52.514;13.192;2023-03-14T06:03:54;1.40;;;0.53;;
9809;SDS011;4944;52.514;13.192;2023-03-14T06:06:21;0.93;;;0.80;;
9809;SDS011;4944;52.514;13.192;2023-03-14T06:08:49;0.77;;;0.60;;
9809;SDS011;4944;52.514;13.192;2023-03-14T06:11:16;1.47;;;0.80;;
9809;SDS011;4944;52.514;13.192;2023-03-14T06:13:43;1.33;;;1.00;;
9809;SDS011;4944;52.514;13.192;2023-03-14T06:16:11;0.70;;;0.70;;
9809;SDS011;4944;52.514;13.192;2023-03-14T06:18:39;1.10;;;0.70;;
9809;SDS011;4944;52.514;13.192;2023-03-14T06:21:06;1.50;;;0.90;;
9809;SDS011;4944;52.514;13.192;2023-03-14T06:23:33;0.93;;;0.70;;
9809;SDS011;4944;52.514;13.192;2023-03-14T06:26:02;0.60;;;0.57;;
9809;SDS011;4944;52.514;13.192;2023-03-14T06:28:29;0.80;;;0.80;;
9809;SDS011;4944;52.514;13.192;2023-03-14T06:30:56;2.37;;;1.00;;
9809;SDS011;4944;52.514;13.192;2023-03-14T06:33:24;0.60;;;0.60;;
9809;SDS011;4944;52.514;13.192;2023-03-14T06:35:51;1.73;;;0.70;;
9809;SDS011;4944;52.514;13.192;2023-03-14T06:38:18;0.90;;;0.80;;
9809;SDS011;4944;52.514;13.192;2023-03-14T06:40:44;1.90;;;1.07;;
9809;SDS011;4944;52.514;13.192;2023-03-14T06:43:13;2.43;;;1.00;;
9809;SDS011;4944;52.514;13.192;2023-03-14T06:45:40;1.17;;;1.07;;
9809;SDS011;4944;52.514;13.192;2023-03-14T06:48:06;2.70;;;0.90;;
9809;SDS011;4944;52.514;13.192;2023-03-14T06:50:33;1.40;;;0.80;;
9809;SDS011;4944;52.514;13.192;2023-03-14T06:53:00;1.10;;;0.67;;
9809;SDS011;4944;52.514;13.192;2023-03-14T06:55:27;2.37;;;1.00;;
9809;SDS011;4944;52.514;13.192;2023-03-14T06:57:54;0.83;;;0.63;;
9809;SDS011;4944;52.514;13.192;2023-03-14T07:00:23;0.93;;;0.70;;
9809;SDS011;4944;52.514;13.192;2023-03-14T07:02:50;1.97;;;0.83;;
9809;SDS011;4944;52.514;13.192;2023-03-14T07:05:16;2.20;;;0.87;;
9809;SDS011;4944;52.514;13.192;2023-03-14T07:07:43;4.07;;;0.90;;
9809;SDS011;4944;52.514;13.192;2023-03-14T07:10:10;1.43;;;0.70;;
9809;SDS011;4944;52.514;13.192;2023-03-14T07:12:37;1.63;;;1.00;;
9809;SDS011;4944;52.514;13.192;2023-03-14T07:15:04;2.80;;;1.07;;
9809;SDS011;4944;52.514;13.192;2023-03-14T07:17:33;1.80;;;0.80;;
9809;SDS011;4944;52.514;13.192;2023-03-14T07:20:00;2.47;;;1.23;;
9809;SDS011;4944;52.514;13.192;2023-03-14T07:22:29;1.40;;;0.90;;
9809;SDS011;4944;52.514;13.192;2023-03-14T07:24:56;3.23;;;1.00;;
9809;SDS011;4944;52.514;13.192;2023-03-14T07:27:23;1.30;;;0.90;;
9809;SDS011;4944;52.514;13.192;2023-03-14T07:29:50;4.60;;;1.10;;
9809;SDS011;4944;52.514;13.192;2023-03-14T07:32:16;2.67;;;1.10;;
9809;SDS011;4944;52.514;13.192;2023-03-14T07:34:45;2.10;;;1.00;;
9809;SDS011;4944;52.514;13.192;2023-03-14T07:37:11;1.60;;;1.00;;
9809;SDS011;4944;52.514;13.192;2023-03-14T07:39:38;2.27;;;1.10;;
9809;SDS011;4944;52.514;13.192;2023-03-14T07:42:05;2.23;;;0.80;;
9809;SDS011;4944;52.514;13.192;2023-03-14T07:44:32;1.73;;;1.00;;
9809;SDS011;4944;52.514;13.192;2023-03-14T07:46:59;1.43;;;1.20;;
9809;SDS011;4944;52.514;13.192;2023-03-14T07:49:26;2.20;;;1.00;;
9809;SDS011;4944;52.514;13.192;2023-03-14T07:51:54;2.50;;;0.90;;
9809;SDS011;4944;52.514;13.192;2023-03-14T07:54:21;1.37;;;0.80;;
9809;SDS011;4944;52.514;13.192;2023-03-14T07:56:48;1.50;;;1.17;;
9809;SDS011;4944;52.514;13.192;2023-03-14T07:59:15;2.40;;;0.90;;
9809;SDS011;4944;52.514;13.192;2023-03-14T08:01:42;1.53;;;1.20;;
9809;SDS011;4944;52.514;13.192;2023-03-14T08:04:09;2.53;;;1.23;;
9809;SDS011;4944;52.514;13.192;2023-03-14T08:06:36;2.03;;;1.20;;
9809;SDS011;4944;52.514;13.192;2023-03-14T08:09:04;2.17;;;1.00;;
9809;SDS011;4944;52.514;13.192;2023-03-14T08:11:31;2.37;;;0.97;;
9809;SDS011;4944;52.514;13.192;2023-03-14T08:13:58;2.93;;;0.93;;
9809;SDS011;4944;52.514;13.192;2023-03-14T08:16:25;2.57;;;0.83;;
9809;SDS011;4944;52.514;13.192;2023-03-14T08:18:52;1.37;;;0.97;;
9809;SDS011;4944;52.514;13.192;2023-03-14T08:21:19;3.17;;;1.07;;
9809;SDS011;4944;52.514;13.192;2023-03-14T08:23:46;2.37;;;1.30;;
9809;SDS011;4944;52.514;13.192;2023-03-14T08:26:14;1.70;;;1.00;;
9809;SDS011;4944;52.514;13.192;2023-03-14T08:28:41;2.00;;;0.80;;
9809;SDS011;4944;52.514;13.192;2023-03-14T08:31:08;2.37;;;1.00;;
9809;SDS011;4944;52.514;13.192;2023-03-14T08:33:35;1.50;;;0.87;;
9809;SDS011;4944;52.514;13.192;2023-03-14T08:36:01;1.87;;;0.90;;
9809;SDS011;4944;52.514;13.192;2023-03-14T08:38:29;2.50;;;1.10;;
9809;SDS011;4944;52.514;13.192;2023-03-14T08:40:56;2.43;;;1.23;;
9809;SDS011;4944;52.514;13.192;2023-03-14T08:43:25;1.90;;;1.10;;
9809;SDS011;4944;52.514;13.192;2023-03-14T08:45:52;3.53;;;1.20;;
9809;SDS011;4944;52.514;13.192;2023-03-14T08:48:19;3.67;;;1.20;;
9809;SDS011;4944;52.514;13.192;2023-03-14T08:50:46;1.30;;;0.73;;
9809;SDS011;4944;52.514;13.192;2023-03-14T08:53:13;1.30;;;0.97;;
9809;SDS011;4944;52.514;13.192;2023-03-14T08:55:40;1.97;;;1.07;;
9809;SDS011;4944;52.514;13.192;2023-03-14T08:58:07;2.03;;;1.17;;
9809;SDS011;4944;52.514;13.192;2023-03-14T09:00:35;2.47;;;0.77;;
9809;SDS011;4944;52.514;13.192;2023-03-14T09:03:02;2.20;;;1.03;;
9809;SDS011;4944;52.514;13.192;2023-03-14T09:05:32;2.80;;;1.10;;
9809;SDS011;4944;52.514;13.192;2023-03-14T09:07:59;3.17;;;1.30;;
9809;SDS011;4944;52.514;13.192;2023-03-14T09:10:26;2.57;;;1.30;;
9809;SDS011;4944;52.514;13.192;2023-03-14T09:12:53;1.77;;;1.10;;
9809;SDS011;4944;52.514;13.192;2023-03-14T09:15:23;2.20;;;1.00;;
9809;SDS011;4944;52.514;13.192;2023-03-14T09:17:53;2.80;;;1.00;;
9809;SDS011;4944;52.514;13.192;2023-03-14T09:20:20;4.00;;;1.13;;
9809;SDS011;4944;52.514;13.192;2023-03-14T09:22:46;2.13;;;0.90;;
9809;SDS011;4944;52.514;13.192;2023-03-14T09:25:13;3.73;;;1.33;;
9809;SDS011;4944;52.514;13.192;2023-03-14T09:27:40;2.03;;;0.83;;
9809;SDS011;4944;52.514;13.192;2023-03-14T09:30:07;2.37;;;1.27;;
9809;SDS011;4944;52.514;13.192;2023-03-14T09:32:35;5.60;;;1.60;;
9809;SDS011;4944;52.514;13.192;2023-03-14T09:35:04;3.90;;;1.10;;
9809;SDS011;4944;52.514;13.192;2023-03-14T09:37:31;1.37;;;1.10;;
9809;SDS011;4944;52.514;13.192;2023-03-14T09:39:58;1.57;;;0.97;;
9809;SDS011;4944;52.514;13.192;2023-03-14T09:42:26;1.53;;;0.73;;
9809;SDS011;4944;52.514;13.192;2023-03-14T09:44:54;1.10;;;0.77;;
9809;SDS011;4944;52.514;13.192;2023-03-14T09:47:23;1.17;;;0.90;;
9809;SDS011;4944;52.514;13.192;2023-03-14T09:49:51;1.60;;;0.90;;
9809;SDS011;4944;52.514;13.192;2023-03-14T09:52:21;1.10;;;0.70;;
9809;SDS011;4944;52.514;13.192;2023-03-14T09:54:51;1.20;;;0.83;;
9809;SDS011;4944;52.514;13.192;2023-03-14T09:57:21;1.93;;;1.07;;
9809;SDS011;4944;52.514;13.192;2023-03-14T09:59:51;2.33;;;1.03;;
9809;SDS011;4944;52.514;13.192;2023-03-14T10:02:21;2.03;;;0.73;;
9809;SDS011;4944;52.514;13.192;2023-03-14T10:04:50;1.27;;;0.90;;
9809;SDS011;4944;52.514;13.192;2023-03-14T10:07:21;6.23;;;2.83;;
9809;SDS011;4944;52.514;13.192;2023-03-14T10:09:53;2.77;;;2.57;;
9809;SDS011;4944;52.514;13.192;2023-03-14T10:12:21;5.60;;;1.20;;
9809;SDS011;4944;52.514;13.192;2023-03-14T10:14:57;2.70;;;1.10;;
9809;SDS011;4944;52.514;13.192;2023-03-14T10:17:28;1.20;;;1.00;;
9809;SDS011;4944;52.514;13.192;2023-03-14T10:19:59;2.90;;;1.30;;
9809;SDS011;4944;52.514;13.192;2023-03-14T10:22:29;2.13;;;1.10;;
9809;SDS011;4944;52.514;13.192;2023-03-14T10:24:57;1.60;;;1.00;;
9809;SDS011;4944;52.514;13.192;2023-03-14T10:27:28;2.57;;;1.20;;
9809;SDS011;4944;52.514;13.192;2023-03-14T10:29:57;3.03;;;1.60;;
9809;SDS011;4944;52.514;13.192;2023-03-14T10:32:31;2.50;;;1.87;;
9809;SDS011;4944;52.514;13.192;2023-03-14T10:35:07;0.80;;;0.50;;
9809;SDS011;4944;52.514;13.192;2023-03-14T10:37:49;1.47;;;0.70;;
9809;SDS011;4944;52.514;13.192;2023-03-14T10:40:20;2.30;;;1.10;;
9809;SDS011;4944;52.514;13.192;2023-03-14T10:42:53;3.77;;;1.20;;
9809;SDS011;4944;52.514;13.192;2023-03-14T10:45:31;2.30;;;0.87;;
9809;SDS011;4944;52.514;13.192;2023-03-14T10:48:05;0.83;;;0.80;;
9809;SDS011;4944;52.514;13.192;2023-03-14T10:50:47;2.13;;;0.93;;
9809;SDS011;4944;52.514;13.192;2023-03-14T10:53:16;1.43;;;0.90;;
9809;SDS011;4944;52.514;13.192;2023-03-14T10:55:43;1.53;;;0.70;;
9809;SDS011;4944;52.514;13.192;2023-03-14T10:58:21;1.43;;;0.90;;
9809;SDS011;4944;52.514;13.192;2023-03-14T11:00:51;3.10;;;0.97;;
9809;SDS011;4944;52.514;13.192;2023-03-14T11:03:26;1.93;;;0.63;;
9809;SDS011;4944;52.514;13.192;2023-03-14T11:05:56;1.97;;;0.53;;
9809;SDS011;4944;52.514;13.192;2023-03-14T11:08:28;0.50;;;0.50;;
9809;SDS011;4944;52.514;13.192;2023-03-14T11:11:07;2.73;;;0.80;;
9809;SDS011;4944;52.514;13.192;2023-03-14T11:13:39;5.17;;;0.93;;
9809;SDS011;4944;52.514;13.192;2023-03-14T11:16:14;4.80;;;0.97;;
9809;SDS011;4944;52.514;13.192;2023-03-14T11:18:51;2.53;;;0.87;;
9809;SDS011;4944;52.514;13.192;2023-03-14T11:21:40;1.43;;;0.73;;
9809;SDS011;4944;52.514;13.192;2023-03-14T11:27:06;1.60;;;0.73;;
9809;SDS011;4944;52.514;13.192;2023-03-14T11:29:43;1.50;;;0.97;;
9809;SDS011;4944;52.514;13.192;2023-03-14T11:32:19;1.10;;;0.70;;
9809;SDS011;4944;52.514;13.192;2023-03-14T11:34:52;0.67;;;0.67;;
9809;SDS011;4944;52.514;13.192;2023-03-14T11:37:22;1.27;;;0.77;;
9809;SDS011;4944;52.514;13.192;2023-03-14T11:39:55;1.17;;;0.60;;
9809;SDS011;4944;52.514;13.192;2023-03-14T11:42:26;1.27;;;0.70;;
9809;SDS011;4944;52.514;13.192;2023-03-14T11:44:54;0.97;;;0.63;;
9809;SDS011;4944;52.514;13.192;2023-03-14T11:47:24;1.53;;;0.50;;
9809;SDS011;4944;52.514;13.192;2023-03-14T11:49:56;2.40;;;0.80;;
9809;SDS011;4944;52.514;13.192;2023-03-14T11:52:29;1.17;;;0.50;;
9809;SDS011;4944;52.514;13.192;2023-03-14T11:55:00;1.70;;;0.57;;
9809;SDS011;4944;52.514;13.192;2023-03-14T11:57:31;1.30;;;0.67;;
9809;SDS011;4944;52.514;13.192;2023-03-14T12:00:00;2.50;;;0.57;;
9809;SDS011;4944;52.514;13.192;2023-03-14T12:02:37;0.97;;;0.80;;
9809;SDS011;4944;52.514;13.192;2023-03-14T12:05:23;1.03;;;0.60;;
9809;SDS011;4944;52.514;13.192;2023-03-14T12:08:15;1.57;;;0.70;;
9809;SDS011;4944;52.514;13.192;2023-03-14T12:10:54;0.93;;;0.37;;
9809;SDS011;4944;52.514;13.192;2023-03-14T12:13:27;0.30;;;0.30;;
9809;SDS011;4944;52.514;13.192;2023-03-14T12:15:56;0.40;;;0.40;;
9809;SDS011;4944;52.514;13.192;2023-03-14T12:18:26;1.00;;;0.47;;
9809;SDS011;4944;52.514;13.192;2023-03-14T12:20:55;1.90;;;0.60;;
9809;SDS011;4944;52.514;13.192;2023-03-14T12:23:23;2.30;;;0.63;;
9809;SDS011;4944;52.514;13.192;2023-03-14T12:28:44;1.17;;;0.63;;
9809;SDS011;4944;52.514;13.192;2023-03-14T12:36:58;1.50;;;0.90;;
9809;SDS011;4944;52.514;13.192;2023-03-14T12:39:35;0.60;;;0.40;;
9809;SDS011;4944;52.514;13.192;2023-03-14T12:42:11;0.33;;;0.33;;
9809;SDS011;4944;52.514;13.192;2023-03-14T12:44:40;1.90;;;0.57;;
9809;SDS011;4944;52.514;13.192;2023-03-14T12:50:28;1.03;;;0.40;;
9809;SDS011;4944;52.514;13.192;2023-03-14T12:53:18;0.47;;;0.43;;
9809;SDS011;4944;52.514;13.192;2023-03-14T12:56:12;3.03;;;0.50;;
9809;SDS011;4944;52.514;13.192;2023-03-14T12:58:56;0.50;;;0.50;;
9809;SDS011;4944;52.514;13.192;2023-03-14T13:01:35;0.77;;;0.33;;
9809;SDS011;4944;52.514;13.192;2023-03-14T13:04:02;2.00;;;0.50;;
9809;SDS011;4944;52.514;13.192;2023-03-14T13:06:48;1.30;;;0.50;;
9809;SDS011;4944;52.514;13.192;2023-03-14T13:12:27;0.40;;;0.30;;
9809;SDS011;4944;52.514;13.192;2023-03-14T13:14:59;0.67;;;0.30;;
9809;SDS011;4944;52.514;13.192;2023-03-14T13:17:30;0.77;;;0.50;;
9809;SDS011;4944;52.514;13.192;2023-03-14T13:20:00;1.00;;;0.70;;
9809;SDS011;4944;52.514;13.192;2023-03-14T13:22:31;1.20;;;0.40;;
9809;SDS011;4944;52.514;13.192;2023-03-14T13:25:02;0.40;;;0.40;;
9809;SDS011;4944;52.514;13.192;2023-03-14T13:27:33;0.93;;;0.50;;
9809;SDS011;4944;52.514;13.192;2023-03-14T13:30:11;0.53;;;0.40;;
9809;SDS011;4944;52.514;13.192;2023-03-14T13:32:44;1.07;;;0.43;;
9809;SDS011;4944;52.514;13.192;2023-03-14T13:35:14;0.57;;;0.30;;
9809;SDS011;4944;52.514;13.192;2023-03-14T13:37:42;0.10;;;0.10;;
9809;SDS011;4944;52.514;13.192;2023-03-14T13:40:18;1.53;;;0.50;;
9809;SDS011;4944;52.514;13.192;2023-03-14T13:42:46;0.67;;;0.33;;
9809;SDS011;4944;52.514;13.192;2023-03-14T13:45:15;0.50;;;0.40;;
9809;SDS011;4944;52.514;13.192;2023-03-14T13:47:42;0.33;;;0.30;;
9809;SDS011;4944;52.514;13.192;2023-03-14T13:50:14;2.50;;;0.70;;
9809;SDS011;4944;52.514;13.192;2023-03-14T13:52:42;0.33;;;0.33;;
9809;SDS011;4944;52.514;13.192;2023-03-14T13:55:13;0.37;;;0.37;;
9809;SDS011;4944;52.514;13.192;2023-03-14T13:57:45;0.10;;;0.10;;
9809;SDS011;4944;52.514;13.192;2023-03-14T14:00:19;0.20;;;0.20;;
9809;SDS011;4944;52.514;13.192;2023-03-14T14:02:48;1.33;;;0.30;;
9809;SDS011;4944;52.514;13.192;2023-03-14T14:05:16;0.53;;;0.27;;
9809;SDS011;4944;52.514;13.192;2023-03-14T14:07:43;0.40;;;0.30;;
9809;SDS011;4944;52.514;13.192;2023-03-14T14:10:11;0.33;;;0.33;;
9809;SDS011;4944;52.514;13.192;2023-03-14T14:12:40;0.30;;;0.10;;
9809;SDS011;4944;52.514;13.192;2023-03-14T14:15:11;0.53;;;0.30;;
9809;SDS011;4944;52.514;13.192;2023-03-14T14:17:43;0.40;;;0.27;;
9809;SDS011;4944;52.514;13.192;2023-03-14T14:20:13;1.80;;;0.23;;
9809;SDS011;4944;52.514;13.192;2023-03-14T14:22:48;0.30;;;0.30;;
9809;SDS011;4944;52.514;13.192;2023-03-14T14:25:15;0.67;;;0.20;;
9809;SDS011;4944;52.514;13.192;2023-03-14T14:27:43;1.93;;;0.30;;
9809;SDS011;4944;52.514;13.192;2023-03-14T14:30:27;0.10;;;0.10;;
9809;SDS011;4944;52.514;13.192;2023-03-14T14:35:50;4.83;;;0.30;;
9809;SDS011;4944;52.514;13.192;2023-03-14T14:38:19;0.20;;;0.20;;
9809;SDS011;4944;52.514;13.192;2023-03-14T14:40:48;0.77;;;0.20;;
9809;SDS011;4944;52.514;13.192;2023-03-14T14:43:18;0.50;;;0.30;;
9809;SDS011;4944;52.514;13.192;2023-03-14T14:45:47;0.53;;;0.30;;
9809;SDS011;4944;52.514;13.192;2023-03-14T14:48:22;1.13;;;0.40;;
9809;SDS011;4944;52.514;13.192;2023-03-14T14:50:54;0.20;;;0.10;;
9809;SDS011;4944;52.514;13.192;2023-03-14T14:53:26;0.47;;;0.30;;
9809;SDS011;4944;52.514;13.192;2023-03-14T14:55:56;0.40;;;0.40;;
9809;SDS011;4944;52.514;13.192;2023-03-14T14:58:26;0.57;;;0.40;;
9809;SDS011;4944;52.514;13.192;2023-03-14T15:00:56;0.43;;;0.43;;
9809;SDS011;4944;52.514;13.192;2023-03-14T15:03:31;0.53;;;0.20;;
9809;SDS011;4944;52.514;13.192;2023-03-14T15:05:59;1.40;;;0.37;;
9809;SDS011;4944;52.514;13.192;2023-03-14T15:08:27;4.10;;;1.00;;
9809;SDS011;4944;52.514;13.192;2023-03-14T15:10:55;1.43;;;0.30;;
9809;SDS011;4944;52.514;13.192;2023-03-14T15:13:22;0.27;;;0.27;;
9809;SDS011;4944;52.514;13.192;2023-03-14T15:15:49;2.73;;;0.50;;
9809;SDS011;4944;52.514;13.192;2023-03-14T15:18:21;0.53;;;0.50;;
9809;SDS011;4944;52.514;13.192;2023-03-14T15:20:50;1.40;;;0.40;;
9809;SDS011;4944;52.514;13.192;2023-03-14T15:23:18;1.10;;;0.30;;
9809;SDS011;4944;52.514;13.192;2023-03-14T15:25:47;0.47;;;0.33;;
9809;SDS011;4944;52.514;13.192;2023-03-14T15:28:15;1.70;;;0.47;;
9809;SDS011;4944;52.514;13.192;2023-03-14T15:30:44;0.30;;;0.30;;
9809;SDS011;4944;52.514;13.192;2023-03-14T15:33:12;0.20;;;0.20;;